Taiban, New Mexico
Current Conditions -  °F | °C
As of 4:56 PM on Wednesday 22 Oct 2014 (Local Time) from K4MR Reporting Station
Clear Clear  
Wind Chill: 72°   Ceiling: Unl
Heat Index: 72°   Visibility: 10mi
Dew Point: 50°   Wind: 9mph
Humidity: 46%   Direction: 180°S
Pressure: 30.07"   Gusts: NA
Location:  34.44°N, 104.01°W
Report Text: K4MR 222256Z AUTO 18008KT 10SM CLR 22/10 A3007 RMK AO2 SLP137 T02220102
Loading
Personal Weather Stations






























Interactive Weather Map
Tropical Storm Tracking
New forecast layout! Learn more

10-Day Weather Forecast

Advertisements
Track Severe Weather on mobile